Aviation Digital Data Service (ADDS)

Output produced by METARs form (2110 UTC 23 April 2018)
found at http://aviationweather.gov/adds/metars/
 
KAUS 232053Z 33004KT 10SM CLR 29/09 A3000 RMK AO2 SLP154 T02890089 58030 $
KAUS 231953Z 27004KT 10SM CLR 28/09 A3004 RMK AO2 SLP167 T02780089 $
KAUS 231853Z VRB05KT 10SM CLR 27/09 A3007 RMK AO2 SLP176 T02670094 $
KAUS 231753Z 33008KT 10SM CLR 26/09 A3009 RMK AO2 SLP185 T02560094 10256 20089 58011 $
KAUS 231734Z 2318/2424 02008KT P6SM SKC 
     FM240200 VRB03KT P6SM SCT250 
     FM241500 15007KT P6SM SCT040 BKN250
       
KRYW 232055Z AUTO 00000KT 10SM CLR 28/06 A3003 RMK AO2 T02790056
KRYW 232035Z AUTO 30004G15KT 10SM CLR 28/06 A3004 RMK AO2 T02840060
KRYW 232015Z AUTO 29007KT 10SM CLR 28/06 A3006 RMK AO2 T02820064
KRYW 231955Z AUTO 26011G16KT 10SM CLR 28/06 A3007 RMK AO2 T02800062
KRYW 231935Z AUTO 30003KT 10SM CLR 28/07 A3007 RMK AO2 T02760066
KRYW 231915Z AUTO 27009G14KT 220V280 10SM CLR 27/06 A3008 RMK AO2 T02700062
KRYW 231855Z AUTO 34007KT 10SM CLR 26/06 A3009 RMK AO2 T02630062
KRYW 231835Z AUTO 25003KT 10SM CLR 26/07 A3010 RMK AO2 T02640065
KRYW 231815Z AUTO 26003G07KT 10SM CLR 26/06 A3011 RMK AO2 T02630063
KRYW 231755Z AUTO 33009G14KT 10SM CLR 25/06 A3012 RMK AO2 T02520064 10254 20124
KRYW 231735Z AUTO 33005KT 10SM CLR 25/06 A3013 RMK AO2 T02470064
KRYW 231715Z AUTO 36003KT 10SM CLR 24/06 A3013 RMK AO2 T02420062